ADDS TAF Board (Experimental) INFO Settings
IDs: Format: Expanded Condensed

KCLE - Cleveland/Hopkins In, OH, US

Issued at 2117 UTC 24 May 2016
Updated at: 2123 UTC 24 May 2016
Time2051Z 24/22Z 24/23Z 25/00Z 25/01Z 25/02Z 25/03Z 25/04Z 25/05Z 25/06Z 25/07Z 25/08Z 25/09Z 25/10Z
Type OBS PRVL PRVL PRVL PRVL PRVL PRVL PRVL PRVL PRVL PRVL PRVL PRVL PRVL
VIS 10 >6 >6 >6 >6 >6 >6 >6 >6 >6 >6 >6 >6 >6
CIG -- -- -- -- -- -- -- -- -- -- -- -- -- --
Cover FEW SKC SKC SKC SKC SKC SKC SKC SKC SKC SKC SKC SKC SKC
FltCat VFR VFR VFR VFR VFR VFR VFR VFR VFR VFR VFR VFR VFR VFR
WX -- -- -- -- -- -- -- -- -- -- -- -- -- --
WDir 300 320 320 320 VRB VRB VRB VRB VRB VRB VRB VRB VRB VRB
WSpd 11 8 8 8 3 3 3 3 3 3 3 3 3 3
WGst -- -- -- -- -- -- -- -- -- -- -- -- -- --
R06/24
XWnd 10 8 8 8 VRB VRB VRB VRB VRB VRB VRB VRB VRB VRB
HWnd -4 -0 -0 -0 VRB VRB VRB VRB VRB VRB VRB VRB VRB VRB
R10/28
XWnd 5 6 6 6 VRB VRB VRB VRB VRB VRB VRB VRB VRB VRB
HWnd -10 -5 -5 -5 VRB VRB VRB VRB VRB VRB VRB VRB VRB VRB

NOTE: TEMPO conditions in [brackets]. Keep in mind TEMPO conditions might be better (lower impact) than prevailing conditions.

Raw TAF
KCLE 242117Z 2421/2524 32008KT P6SM SKC
  FM250100 VRB03KT P6SM SKC
  FM251500 22008KT P6SM SCT250


Raw METAR
KCLE 242051Z 30011KT 10SM FEW250 27/05 A3006 RMK AO2 SLP175 T02720050 55006
KCLE 241951Z VRB04KT 10SM CLR 28/07 A3005 RMK AO2 SLP173 T02780067
KCLE 241851Z 28008G16KT 240V340 10SM CLR 27/07 A3007 RMK AO2 SLP178 T02720072

METAR Board
Radar Display
Forecast Discussion

TAF Board Legend

Potential Impact
Threat None Slight Moderate High
Visibility (sm) ≥5.1 5.1>X≥3 3>X≥1 <1
Ceiling (100 ft) ≥30.1 30.1>X≥10 10>X≥5 <5
Wind Speed (kt) <10 10≤X<20 20≤X<30 ≥30
Wind Gust (kt) <15 15≤X<25 25≤X<35 ≥35
Weather No Wx Reported VCTS,-TS,-FZRA,SN TS,FZRA +TS,+FZRA,+SN